createdAt,value
2023-10-12T00:02:44.491Z,43.4
2023-10-12T00:07:45.081Z,43.4
2023-10-12T00:12:46.077Z,43.4
2023-10-12T00:17:47.142Z,43.3
2023-10-12T00:22:47.906Z,43.3
2023-10-12T00:27:48.511Z,43.3
2023-10-12T00:32:49.335Z,43.2
2023-10-12T00:37:50.229Z,43.1
2023-10-12T00:42:50.818Z,43.1
2023-10-12T00:47:51.434Z,43.1
2023-10-12T00:52:52.903Z,43
2023-10-12T00:57:53.514Z,43
2023-10-12T01:02:54.253Z,42.9
2023-10-12T01:07:54.910Z,42.9
2023-10-12T01:12:55.542Z,42.9
2023-10-12T01:17:56.206Z,42.8
2023-10-12T01:22:56.814Z,42.7
2023-10-12T01:27:57.604Z,42.7
2023-10-12T01:32:59.261Z,42.7
2023-10-12T01:38:00.127Z,42.6
2023-10-12T01:43:01.574Z,42.6
2023-10-12T01:48:02.219Z,42.6
2023-10-12T01:53:02.864Z,42.6
2023-10-12T01:58:03.471Z,42.5
2023-10-12T02:03:04.251Z,42.4
2023-10-12T02:08:04.904Z,42.4
2023-10-12T02:13:05.453Z,42.4
2023-10-12T02:18:06.026Z,42.3
2023-10-12T02:23:06.610Z,42.3
2023-10-12T02:28:07.234Z,42.2
2023-10-12T02:33:07.840Z,42.2
2023-10-12T02:38:08.425Z,42.2
2023-10-12T02:43:08.978Z,42.1
2023-10-12T02:48:09.592Z,42.1
2023-10-12T02:53:10.240Z,42.1
2023-10-12T02:58:10.859Z,42
2023-10-12T03:03:13.666Z,42
2023-10-12T03:08:14.729Z,41.9
2023-10-12T03:13:15.248Z,41.9
2023-10-12T03:18:15.791Z,41.9
2023-10-12T03:23:16.295Z,41.8
2023-10-12T03:28:16.837Z,41.8
2023-10-12T03:33:17.396Z,41.7
2023-10-12T03:38:17.914Z,41.7
2023-10-12T03:43:18.429Z,41.7
2023-10-12T03:48:18.954Z,41.6
2023-10-12T03:53:19.632Z,41.6
2023-10-12T03:58:20.163Z,41.6
2023-10-12T04:03:20.854Z,41.6
2023-10-12T04:08:21.441Z,41.5
2023-10-12T04:13:22.001Z,41.4
2023-10-12T04:18:22.634Z,41.4
2023-10-12T04:23:23.144Z,41.4
2023-10-12T04:28:23.639Z,41.4
2023-10-12T04:33:24.136Z,41.3
2023-10-12T04:38:24.633Z,41.3
2023-10-12T04:43:25.071Z,41.2
2023-10-12T04:48:25.472Z,41.2
2023-10-12T04:53:25.940Z,41.2
2023-10-12T04:58:26.432Z,41.1
2023-10-12T05:03:27.067Z,41.1
2023-10-12T05:08:27.665Z,41.1
2023-10-12T05:13:28.130Z,41
2023-10-12T05:18:29.063Z,41
2023-10-12T05:23:29.650Z,40.9
2023-10-12T05:28:30.179Z,40.9
2023-10-12T05:33:30.771Z,40.9
2023-10-12T05:38:31.463Z,40.9
2023-10-12T05:43:32.013Z,40.8
2023-10-12T05:48:32.600Z,40.8
2023-10-12T05:53:33.149Z,40.8
2023-10-12T05:58:33.691Z,40.7
2023-10-12T06:03:34.264Z,40.4
2023-10-12T06:08:35.073Z,40.2
2023-10-12T06:13:36.748Z,40.2
2023-10-12T06:18:37.307Z,40.2
2023-10-12T06:23:37.833Z,40.1
2023-10-12T06:28:38.337Z,40.1
2023-10-12T06:33:38.880Z,40.1
2023-10-12T06:38:39.388Z,40
2023-10-12T06:43:39.966Z,40
2023-10-12T06:48:40.487Z,40
2023-10-12T06:53:41.001Z,39.9
2023-10-12T06:58:41.547Z,39.9
2023-10-12T07:03:42.088Z,39.9
2023-10-12T07:08:42.647Z,39.8
2023-10-12T07:13:43.152Z,39.8
2023-10-12T07:18:46.074Z,39.7
2023-10-12T07:23:46.624Z,39.7
2023-10-12T07:28:47.293Z,39.7
2023-10-12T07:33:47.795Z,39.4
2023-10-12T07:38:48.364Z,39.1
2023-10-12T07:43:48.860Z,38.9
2023-10-12T07:48:49.442Z,38.9
2023-10-12T07:53:49.975Z,38.9
2023-10-12T07:58:50.460Z,38.9
2023-10-12T08:03:50.963Z,38.8
2023-10-12T08:08:54.460Z,38.8
2023-10-12T08:13:54.958Z,38.7
2023-10-12T08:18:55.414Z,38.7
2023-10-12T08:23:55.867Z,38.7
2023-10-12T08:28:56.356Z,38.6
2023-10-12T08:33:56.858Z,38.6
2023-10-12T08:38:57.471Z,38.6
2023-10-12T08:43:58.020Z,38.6
2023-10-12T08:48:58.531Z,38.5
2023-10-12T08:53:59.064Z,38.5
2023-10-12T08:59:00.570Z,38.4
2023-10-12T09:04:01.173Z,38.4
2023-10-12T09:09:01.770Z,38.4
2023-10-12T09:14:02.204Z,38.3
2023-10-12T09:19:02.761Z,38.3
2023-10-12T09:24:03.311Z,38.2
2023-10-12T09:29:03.756Z,38.2
2023-10-12T09:34:04.295Z,38.2
2023-10-12T09:39:04.866Z,38.2
2023-10-12T09:44:05.278Z,38.2
2023-10-12T09:49:05.718Z,38.1
2023-10-12T09:54:06.165Z,38.1
2023-10-12T09:59:06.680Z,38.1
2023-10-12T10:04:07.154Z,38
2023-10-12T10:09:07.815Z,38
2023-10-12T10:14:08.245Z,38
2023-10-12T10:19:08.741Z,37.9
2023-10-12T10:24:09.165Z,37.9
2023-10-12T10:29:09.590Z,37.9
2023-10-12T10:34:10.037Z,37.9
2023-10-12T10:39:10.464Z,37.8
2023-10-12T10:44:10.845Z,37.8
2023-10-12T10:54:14.786Z,37.7
2023-10-12T10:59:15.573Z,37.7
2023-10-12T11:04:16.172Z,37.7
2023-10-12T11:09:16.649Z,37.7
2023-10-12T11:14:17.108Z,37.6
2023-10-12T11:19:17.525Z,37.6
2023-10-12T11:24:18.025Z,37.6
2023-10-12T11:29:18.562Z,37.6
2023-10-12T11:34:19.144Z,37.6
2023-10-12T11:39:19.840Z,37.5
2023-10-12T11:44:23.344Z,37.5
2023-10-12T11:49:24.262Z,37.4
2023-10-12T11:54:24.855Z,37.4
2023-10-12T11:59:25.267Z,37.4
2023-10-12T12:04:25.747Z,37.4
2023-10-12T12:09:27.742Z,37.4
2023-10-12T12:14:28.156Z,37.3
2023-10-12T12:19:28.594Z,37.3
2023-10-12T12:24:29.157Z,37.2
2023-10-12T12:29:35.675Z,37.2
2023-10-12T12:34:46.232Z,37.2
2023-10-12T12:39:46.650Z,37.2
2023-10-12T12:44:47.098Z,37.2
2023-10-12T12:49:47.465Z,37.1
2023-10-12T12:54:48.015Z,37.1
2023-10-12T12:59:48.419Z,37.1
2023-10-12T13:04:48.920Z,37.1
2023-10-12T13:09:49.565Z,37.1
2023-10-12T13:14:50.058Z,37
2023-10-12T13:19:50.471Z,37
2023-10-12T13:24:50.988Z,37
2023-10-12T13:29:51.417Z,36.9
2023-10-12T13:34:52.013Z,36.9
2023-10-12T13:39:52.441Z,36.9
2023-10-12T13:44:52.891Z,36.9
2023-10-12T13:49:53.308Z,36.9
2023-10-12T13:54:53.770Z,36.8
2023-10-12T13:59:54.287Z,36.8
2023-10-12T14:04:54.747Z,36.8
2023-10-12T14:09:55.178Z,36.7
2023-10-12T14:14:55.600Z,36.7
2023-10-12T14:19:56.467Z,37.7
2023-10-12T14:24:57.221Z,40
2023-10-12T14:29:57.771Z,41
2023-10-12T14:34:58.503Z,41.8
2023-10-12T14:39:59.058Z,41.9
2023-10-12T14:44:59.567Z,41.9
2023-10-12T14:50:00.103Z,41.9
2023-10-12T14:55:00.809Z,42
2023-10-12T15:00:01.461Z,43.1
2023-10-12T15:05:02.052Z,43.3
2023-10-12T15:10:02.670Z,43.3
2023-10-12T15:15:03.293Z,43.3
2023-10-12T15:20:03.903Z,43.3
2023-10-12T15:25:04.534Z,43.2
2023-10-12T15:30:05.294Z,43.2
2023-10-12T15:35:05.910Z,43.2
2023-10-12T15:40:06.617Z,42.9
2023-10-12T15:45:10.250Z,43.4
2023-10-12T15:50:10.874Z,43.3
2023-10-12T15:55:11.489Z,43.3
2023-10-12T16:00:12.075Z,43.3
2023-10-12T16:05:12.935Z,43.2
2023-10-12T16:10:13.606Z,43.2
2023-10-12T16:15:14.217Z,43.1
2023-10-12T16:20:14.766Z,43.1
2023-10-12T16:25:15.403Z,43.1
2023-10-12T16:30:15.980Z,43.1
2023-10-12T16:35:16.578Z,43
2023-10-12T16:40:17.284Z,43
2023-10-12T16:45:19.458Z,42.9
2023-10-12T16:50:20.187Z,42.9
2023-10-12T16:55:20.853Z,42.9
2023-10-12T17:00:21.484Z,42.9
2023-10-12T17:05:22.110Z,42.8
2023-10-12T17:10:22.672Z,42.8
2023-10-12T17:15:23.260Z,42.7
2023-10-12T17:20:23.844Z,42.7
2023-10-12T17:25:24.469Z,42.7
2023-10-12T17:30:25.187Z,42.7
2023-10-12T17:35:25.736Z,42.6
2023-10-12T17:40:26.480Z,42.6
2023-10-12T17:45:27.103Z,42.6
2023-10-12T17:50:27.669Z,42.6
2023-10-12T17:55:28.773Z,43.3
2023-10-12T18:00:30.531Z,43.9
2023-10-12T18:05:31.158Z,44.4
2023-10-12T18:10:31.813Z,44.1
2023-10-12T18:15:32.483Z,44
2023-10-12T18:20:33.112Z,44
2023-10-12T18:25:34.208Z,43.9
2023-10-12T18:30:34.882Z,43.9
2023-10-12T18:35:36.308Z,43.8
2023-10-12T18:40:36.948Z,43.8
2023-10-12T18:45:37.594Z,43.7
2023-10-12T18:50:38.198Z,43.7
2023-10-12T18:55:38.906Z,43.7
2023-10-12T19:00:39.770Z,43.6
2023-10-12T19:05:40.468Z,43.6
2023-10-12T19:10:41.117Z,43.5
2023-10-12T19:15:41.724Z,43.5
2023-10-12T19:20:42.414Z,43.4
2023-10-12T19:25:43.161Z,43.4
2023-10-12T19:30:43.802Z,43.3
2023-10-12T19:35:44.478Z,43.3
2023-10-12T19:40:45.083Z,43.2
2023-10-12T19:45:45.685Z,43.1
2023-10-12T19:50:46.457Z,43.1
2023-10-12T19:55:46.977Z,43
2023-10-12T20:00:47.682Z,42.9
2023-10-12T20:05:48.331Z,42.9
2023-10-12T20:10:48.924Z,42.8
2023-10-12T20:15:49.514Z,42.7
2023-10-12T20:20:50.078Z,42.6
2023-10-12T20:25:50.862Z,42.5
2023-10-12T20:30:51.512Z,42.4
2023-10-12T20:35:52.105Z,42.3
2023-10-12T20:40:52.724Z,42.2
2023-10-12T20:45:53.474Z,42.2
2023-10-12T20:50:54.110Z,42.1
2023-10-12T20:55:54.650Z,42.1
2023-10-12T21:00:55.227Z,42
2023-10-12T21:05:55.898Z,41.9
2023-10-12T21:10:56.408Z,41.9
2023-10-12T21:15:56.893Z,41.8
2023-10-12T21:20:57.411Z,41.7
2023-10-12T21:25:57.937Z,41.7
2023-10-12T21:30:58.460Z,41.6
2023-10-12T21:35:58.963Z,41.6
2023-10-12T21:40:59.532Z,41.5
2023-10-12T21:46:00.158Z,41.4
2023-10-12T21:51:00.803Z,41.4
2023-10-12T21:56:01.294Z,41.3
2023-10-12T22:01:01.848Z,41.2
2023-10-12T22:06:02.369Z,41.2
2023-10-12T22:11:02.832Z,41.1
2023-10-12T22:16:03.332Z,41.1
2023-10-12T22:21:03.884Z,41
2023-10-12T22:26:04.369Z,40.9
2023-10-12T22:31:05.052Z,40.9
2023-10-12T22:36:05.776Z,40.8
2023-10-12T22:41:06.315Z,40.8
2023-10-12T22:46:06.866Z,40.7
2023-10-12T22:51:07.496Z,40.6
2023-10-12T22:56:08.100Z,40.6
2023-10-12T23:01:08.663Z,40.6
2023-10-12T23:06:09.302Z,40.5
2023-10-12T23:11:09.865Z,40.4
2023-10-12T23:16:10.445Z,40.4
2023-10-12T23:21:11.063Z,40.3
2023-10-12T23:26:11.583Z,40.2
2023-10-12T23:31:12.131Z,40.2
2023-10-12T23:36:12.732Z,40.1
2023-10-12T23:41:13.231Z,40.1
2023-10-12T23:46:13.826Z,40.1
2023-10-12T23:51:14.545Z,40
2023-10-12T23:56:15.181Z,39.9
